Report METAR

 

LIEE - Elmas, IT
Distance from station: NO 11km
Dati ricevuti: 22/05/2024 04:20
Sereno
Sereno
 Vento da N
Vento: N 13 km/h
Temperatura: 16°C
P.to Rugiada: 14°C
Umidità: 88%
Barometro: 1016 hPa
Sommario: Sereno
Visibility: superiore a 10 km
2024/05/22 02:20 LIEE 220220Z 35007KT CAVOK 16/14 Q1016
LIED - Decimomannu, IT
Distance from station: NO 23km
Dati ricevuti: 22/05/2024 03:55
Few Clouds
Few Clouds
 Vento da NNO
Vento: NNO 6 km/h
Temperatura: 15°C
P.to Rugiada: 14°C
Umidità: 94%
Barometro: 1015 hPa
Nuvole: Few Clouds
Visibility: 10 km
Cloud details: Few Clouds 762 m
2024/05/22 01:55 LIED 220155Z 34003KT 9999 FEW025 15/14 Q1015